sensor_id;sensor_type;location;lat;lon;timestamp;temperature;humidity
7516;DHT22;3799;47.184;8.538;2024-01-27T00:02:26;8.90;99.90
7516;DHT22;3799;47.184;8.538;2024-01-27T00:04:54;8.90;99.90
7516;DHT22;3799;47.184;8.538;2024-01-27T00:07:22;8.70;99.90
7516;DHT22;3799;47.184;8.538;2024-01-27T00:09:58;8.80;99.90
7516;DHT22;3799;47.184;8.538;2024-01-27T00:12:29;8.70;99.90
7516;DHT22;3799;47.184;8.538;2024-01-27T00:14:57;8.60;99.90
7516;DHT22;3799;47.184;8.538;2024-01-27T00:17:25;8.70;99.90
7516;DHT22;3799;47.184;8.538;2024-01-27T00:19:55;8.60;99.90
7516;DHT22;3799;47.184;8.538;2024-01-27T00:22:22;8.70;99.90
7516;DHT22;3799;47.184;8.538;2024-01-27T00:24:50;8.60;99.90
7516;DHT22;3799;47.184;8.538;2024-01-27T00:27:24;8.70;99.90
7516;DHT22;3799;47.184;8.538;2024-01-27T00:29:52;8.60;99.90
7516;DHT22;3799;47.184;8.538;2024-01-27T00:32:20;8.60;99.90
7516;DHT22;3799;47.184;8.538;2024-01-27T00:34:48;8.50;99.90
7516;DHT22;3799;47.184;8.538;2024-01-27T00:37:16;8.60;99.90
7516;DHT22;3799;47.184;8.538;2024-01-27T00:39:43;8.50;99.90
7516;DHT22;3799;47.184;8.538;2024-01-27T00:42:12;8.40;99.90
7516;DHT22;3799;47.184;8.538;2024-01-27T00:44:41;8.60;99.90
7516;DHT22;3799;47.184;8.538;2024-01-27T00:47:09;8.40;99.90
7516;DHT22;3799;47.184;8.538;2024-01-27T00:49:36;8.40;99.90
7516;DHT22;3799;47.184;8.538;2024-01-27T00:52:09;8.40;99.90
7516;DHT22;3799;47.184;8.538;2024-01-27T00:54:37;8.30;99.90
7516;DHT22;3799;47.184;8.538;2024-01-27T00:57:07;8.20;99.90
7516;DHT22;3799;47.184;8.538;2024-01-27T00:59:35;8.50;99.90
7516;DHT22;3799;47.184;8.538;2024-01-27T01:02:02;8.40;99.90
7516;DHT22;3799;47.184;8.538;2024-01-27T01:04:31;8.50;99.90
7516;DHT22;3799;47.184;8.538;2024-01-27T01:06:58;8.50;99.90
7516;DHT22;3799;47.184;8.538;2024-01-27T01:09:26;8.20;99.90
7516;DHT22;3799;47.184;8.538;2024-01-27T01:11:53;8.40;99.90
7516;DHT22;3799;47.184;8.538;2024-01-27T01:14:28;8.30;99.90
7516;DHT22;3799;47.184;8.538;2024-01-27T01:16:55;8.20;99.90
7516;DHT22;3799;47.184;8.538;2024-01-27T01:19:25;8.40;99.90
7516;DHT22;3799;47.184;8.538;2024-01-27T01:21:55;8.50;99.90
7516;DHT22;3799;47.184;8.538;2024-01-27T01:24:25;8.50;99.90
7516;DHT22;3799;47.184;8.538;2024-01-27T01:26:53;8.20;99.90
7516;DHT22;3799;47.184;8.538;2024-01-27T01:29:20;8.50;99.90
7516;DHT22;3799;47.184;8.538;2024-01-27T01:31:49;8.10;99.90
7516;DHT22;3799;47.184;8.538;2024-01-27T01:34:25;8.50;99.90
7516;DHT22;3799;47.184;8.538;2024-01-27T01:36:53;8.30;99.90
7516;DHT22;3799;47.184;8.538;2024-01-27T01:39:22;8.20;99.90
7516;DHT22;3799;47.184;8.538;2024-01-27T01:41:49;8.30;99.90
7516;DHT22;3799;47.184;8.538;2024-01-27T01:44:17;8.00;99.90
7516;DHT22;3799;47.184;8.538;2024-01-27T01:46:45;8.10;99.90
7516;DHT22;3799;47.184;8.538;2024-01-27T01:49:12;7.90;99.90
7516;DHT22;3799;47.184;8.538;2024-01-27T01:51:40;7.80;99.90
7516;DHT22;3799;47.184;8.538;2024-01-27T01:54:07;7.80;99.90
7516;DHT22;3799;47.184;8.538;2024-01-27T01:56:41;7.80;99.90
7516;DHT22;3799;47.184;8.538;2024-01-27T01:59:09;8.20;99.90
7516;DHT22;3799;47.184;8.538;2024-01-27T02:01:37;7.90;99.90
7516;DHT22;3799;47.184;8.538;2024-01-27T02:04:04;8.10;99.90
7516;DHT22;3799;47.184;8.538;2024-01-27T02:06:35;7.90;99.90
7516;DHT22;3799;47.184;8.538;2024-01-27T02:09:02;7.90;99.90
7516;DHT22;3799;47.184;8.538;2024-01-27T02:11:30;7.80;99.90
7516;DHT22;3799;47.184;8.538;2024-01-27T02:13:58;8.00;99.90
7516;DHT22;3799;47.184;8.538;2024-01-27T02:16:25;8.00;99.90
7516;DHT22;3799;47.184;8.538;2024-01-27T02:18:54;8.00;99.90
7516;DHT22;3799;47.184;8.538;2024-01-27T02:21:25;7.90;99.90
7516;DHT22;3799;47.184;8.538;2024-01-27T02:23:52;7.90;99.90
7516;DHT22;3799;47.184;8.538;2024-01-27T02:26:19;7.70;99.90
7516;DHT22;3799;47.184;8.538;2024-01-27T02:28:48;8.00;99.90
7516;DHT22;3799;47.184;8.538;2024-01-27T02:31:16;7.90;99.90
7516;DHT22;3799;47.184;8.538;2024-01-27T02:33:43;7.90;99.90
7516;DHT22;3799;47.184;8.538;2024-01-27T02:36:11;8.10;99.90
7516;DHT22;3799;47.184;8.538;2024-01-27T02:38:38;8.00;99.90
7516;DHT22;3799;47.184;8.538;2024-01-27T02:41:07;7.70;99.90
7516;DHT22;3799;47.184;8.538;2024-01-27T02:43:35;7.70;99.90
7516;DHT22;3799;47.184;8.538;2024-01-27T02:46:06;7.60;99.90
7516;DHT22;3799;47.184;8.538;2024-01-27T02:48:33;7.80;99.90
7516;DHT22;3799;47.184;8.538;2024-01-27T02:51:05;7.50;99.90
7516;DHT22;3799;47.184;8.538;2024-01-27T02:53:33;7.50;99.90
7516;DHT22;3799;47.184;8.538;2024-01-27T02:56:00;7.50;99.90
7516;DHT22;3799;47.184;8.538;2024-01-27T02:58:27;7.70;99.90
7516;DHT22;3799;47.184;8.538;2024-01-27T03:00:55;7.60;99.90
7516;DHT22;3799;47.184;8.538;2024-01-27T03:03:22;7.50;99.90
7516;DHT22;3799;47.184;8.538;2024-01-27T03:05:49;7.60;99.90
7516;DHT22;3799;47.184;8.538;2024-01-27T03:08:19;7.60;99.90
7516;DHT22;3799;47.184;8.538;2024-01-27T03:10:46;7.40;99.90
7516;DHT22;3799;47.184;8.538;2024-01-27T03:13:14;7.70;99.90
7516;DHT22;3799;47.184;8.538;2024-01-27T03:15:41;7.70;99.90
7516;DHT22;3799;47.184;8.538;2024-01-27T03:18:10;7.70;99.90
7516;DHT22;3799;47.184;8.538;2024-01-27T03:20:38;7.70;99.90
7516;DHT22;3799;47.184;8.538;2024-01-27T03:23:05;7.50;99.90
7516;DHT22;3799;47.184;8.538;2024-01-27T03:25:42;7.50;99.90
7516;DHT22;3799;47.184;8.538;2024-01-27T03:28:10;7.60;99.90
7516;DHT22;3799;47.184;8.538;2024-01-27T03:30:37;7.60;99.90
7516;DHT22;3799;47.184;8.538;2024-01-27T03:33:05;7.40;99.90
7516;DHT22;3799;47.184;8.538;2024-01-27T03:35:39;7.50;99.90
7516;DHT22;3799;47.184;8.538;2024-01-27T03:38:12;7.30;99.90
7516;DHT22;3799;47.184;8.538;2024-01-27T03:40:39;7.40;99.90
7516;DHT22;3799;47.184;8.538;2024-01-27T03:43:06;7.30;99.90
7516;DHT22;3799;47.184;8.538;2024-01-27T03:45:34;7.20;99.90
7516;DHT22;3799;47.184;8.538;2024-01-27T03:48:01;7.30;99.90
7516;DHT22;3799;47.184;8.538;2024-01-27T03:50:31;7.30;99.90
7516;DHT22;3799;47.184;8.538;2024-01-27T03:52:58;7.20;99.90
7516;DHT22;3799;47.184;8.538;2024-01-27T03:55:26;7.40;99.90
7516;DHT22;3799;47.184;8.538;2024-01-27T03:57:53;7.40;99.90
7516;DHT22;3799;47.184;8.538;2024-01-27T04:00:21;7.30;99.90
7516;DHT22;3799;47.184;8.538;2024-01-27T04:02:48;7.40;99.90
7516;DHT22;3799;47.184;8.538;2024-01-27T04:05:16;7.20;99.90
7516;DHT22;3799;47.184;8.538;2024-01-27T04:07:43;7.30;99.90
7516;DHT22;3799;47.184;8.538;2024-01-27T04:10:27;7.30;99.90
7516;DHT22;3799;47.184;8.538;2024-01-27T04:12:55;7.60;99.90
7516;DHT22;3799;47.184;8.538;2024-01-27T04:15:22;7.20;99.90
7516;DHT22;3799;47.184;8.538;2024-01-27T04:17:52;7.30;99.90
7516;DHT22;3799;47.184;8.538;2024-01-27T04:20:25;7.40;99.90
7516;DHT22;3799;47.184;8.538;2024-01-27T04:22:53;7.30;99.90
7516;DHT22;3799;47.184;8.538;2024-01-27T04:25:20;7.30;99.90
7516;DHT22;3799;47.184;8.538;2024-01-27T04:27:48;7.50;99.90
7516;DHT22;3799;47.184;8.538;2024-01-27T04:30:18;7.30;99.90
7516;DHT22;3799;47.184;8.538;2024-01-27T04:32:47;7.60;99.90
7516;DHT22;3799;47.184;8.538;2024-01-27T04:35:20;7.30;99.90
7516;DHT22;3799;47.184;8.538;2024-01-27T04:37:50;7.30;99.90
7516;DHT22;3799;47.184;8.538;2024-01-27T04:40:19;7.20;99.90
7516;DHT22;3799;47.184;8.538;2024-01-27T04:42:46;7.40;99.90
7516;DHT22;3799;47.184;8.538;2024-01-27T04:45:14;7.50;99.90
7516;DHT22;3799;47.184;8.538;2024-01-27T04:47:45;7.30;99.90
7516;DHT22;3799;47.184;8.538;2024-01-27T04:50:12;7.40;99.90
7516;DHT22;3799;47.184;8.538;2024-01-27T04:52:40;7.10;99.90
7516;DHT22;3799;47.184;8.538;2024-01-27T04:55:08;7.30;99.90
7516;DHT22;3799;47.184;8.538;2024-01-27T04:57:36;7.40;99.90
7516;DHT22;3799;47.184;8.538;2024-01-27T05:00:04;7.30;99.90
7516;DHT22;3799;47.184;8.538;2024-01-27T05:02:41;7.30;99.90
7516;DHT22;3799;47.184;8.538;2024-01-27T05:05:09;7.20;99.90
7516;DHT22;3799;47.184;8.538;2024-01-27T05:07:36;7.30;99.90
7516;DHT22;3799;47.184;8.538;2024-01-27T05:10:10;7.30;99.90
7516;DHT22;3799;47.184;8.538;2024-01-27T05:12:39;7.30;99.90
7516;DHT22;3799;47.184;8.538;2024-01-27T05:15:09;7.20;99.90
7516;DHT22;3799;47.184;8.538;2024-01-27T05:17:38;7.30;99.90
7516;DHT22;3799;47.184;8.538;2024-01-27T05:20:06;7.40;99.90
7516;DHT22;3799;47.184;8.538;2024-01-27T05:22:34;7.30;99.90
7516;DHT22;3799;47.184;8.538;2024-01-27T05:25:07;7.40;99.90
7516;DHT22;3799;47.184;8.538;2024-01-27T05:27:36;7.30;99.90
7516;DHT22;3799;47.184;8.538;2024-01-27T05:30:08;7.20;99.90
7516;DHT22;3799;47.184;8.538;2024-01-27T05:32:39;7.10;99.90
7516;DHT22;3799;47.184;8.538;2024-01-27T05:35:07;7.10;99.90
7516;DHT22;3799;47.184;8.538;2024-01-27T05:37:35;7.10;99.90
7516;DHT22;3799;47.184;8.538;2024-01-27T05:40:02;7.20;99.90
7516;DHT22;3799;47.184;8.538;2024-01-27T05:42:30;7.20;99.90
7516;DHT22;3799;47.184;8.538;2024-01-27T05:44:57;7.10;99.90
7516;DHT22;3799;47.184;8.538;2024-01-27T05:47:25;7.30;99.90
7516;DHT22;3799;47.184;8.538;2024-01-27T05:49:53;7.10;99.90
7516;DHT22;3799;47.184;8.538;2024-01-27T05:52:20;7.10;99.90
7516;DHT22;3799;47.184;8.538;2024-01-27T05:54:52;7.20;99.90
7516;DHT22;3799;47.184;8.538;2024-01-27T05:57:20;7.30;99.90
7516;DHT22;3799;47.184;8.538;2024-01-27T05:59:48;7.30;99.90
7516;DHT22;3799;47.184;8.538;2024-01-27T06:02:16;7.20;99.90
7516;DHT22;3799;47.184;8.538;2024-01-27T06:04:53;7.20;99.90
7516;DHT22;3799;47.184;8.538;2024-01-27T06:07:20;7.30;99.90
7516;DHT22;3799;47.184;8.538;2024-01-27T06:09:52;7.40;99.90
7516;DHT22;3799;47.184;8.538;2024-01-27T06:12:20;7.20;99.90
7516;DHT22;3799;47.184;8.538;2024-01-27T06:14:57;7.20;99.90
7516;DHT22;3799;47.184;8.538;2024-01-27T06:17:26;7.40;99.90
7516;DHT22;3799;47.184;8.538;2024-01-27T06:19:53;7.20;99.90
7516;DHT22;3799;47.184;8.538;2024-01-27T06:22:28;7.20;99.90
7516;DHT22;3799;47.184;8.538;2024-01-27T06:24:55;7.20;99.90
7516;DHT22;3799;47.184;8.538;2024-01-27T06:27:24;7.00;99.90
7516;DHT22;3799;47.184;8.538;2024-01-27T06:29:54;7.20;99.90
7516;DHT22;3799;47.184;8.538;2024-01-27T06:32:22;7.00;99.90
7516;DHT22;3799;47.184;8.538;2024-01-27T06:34:49;7.00;99.90
7516;DHT22;3799;47.184;8.538;2024-01-27T06:37:17;7.20;99.90
7516;DHT22;3799;47.184;8.538;2024-01-27T06:39:48;6.90;99.90
7516;DHT22;3799;47.184;8.538;2024-01-27T06:42:21;7.00;99.90
7516;DHT22;3799;47.184;8.538;2024-01-27T06:44:49;6.80;99.90
7516;DHT22;3799;47.184;8.538;2024-01-27T06:47:18;6.70;99.90
7516;DHT22;3799;47.184;8.538;2024-01-27T06:49:45;6.50;99.90
7516;DHT22;3799;47.184;8.538;2024-01-27T06:52:13;6.50;99.90
7516;DHT22;3799;47.184;8.538;2024-01-27T06:54:41;6.60;99.90
7516;DHT22;3799;47.184;8.538;2024-01-27T06:57:19;6.30;99.90
7516;DHT22;3799;47.184;8.538;2024-01-27T06:59:49;6.20;99.90
7516;DHT22;3799;47.184;8.538;2024-01-27T07:02:23;6.30;99.90
7516;DHT22;3799;47.184;8.538;2024-01-27T07:04:52;6.20;99.90
7516;DHT22;3799;47.184;8.538;2024-01-27T07:07:26;6.00;99.90
7516;DHT22;3799;47.184;8.538;2024-01-27T07:09:57;5.90;99.90
7516;DHT22;3799;47.184;8.538;2024-01-27T07:12:26;6.00;99.90
7516;DHT22;3799;47.184;8.538;2024-01-27T07:14:56;5.90;99.90
7516;DHT22;3799;47.184;8.538;2024-01-27T07:17:29;5.80;99.90
7516;DHT22;3799;47.184;8.538;2024-01-27T07:19:56;5.90;99.90
7516;DHT22;3799;47.184;8.538;2024-01-27T07:22:24;5.70;99.90
7516;DHT22;3799;47.184;8.538;2024-01-27T07:24:51;5.80;99.90
7516;DHT22;3799;47.184;8.538;2024-01-27T07:27:24;5.70;99.90
7516;DHT22;3799;47.184;8.538;2024-01-27T07:29:52;5.60;99.90
7516;DHT22;3799;47.184;8.538;2024-01-27T07:32:20;5.90;99.90
7516;DHT22;3799;47.184;8.538;2024-01-27T07:34:48;5.70;99.90
7516;DHT22;3799;47.184;8.538;2024-01-27T07:37:15;6.00;99.90
7516;DHT22;3799;47.184;8.538;2024-01-27T07:39:43;5.70;99.90
7516;DHT22;3799;47.184;8.538;2024-01-27T07:42:10;5.90;99.90
7516;DHT22;3799;47.184;8.538;2024-01-27T07:44:38;6.00;99.90
7516;DHT22;3799;47.184;8.538;2024-01-27T07:47:06;6.10;99.90
7516;DHT22;3799;47.184;8.538;2024-01-27T07:49:33;6.00;99.90
7516;DHT22;3799;47.184;8.538;2024-01-27T07:52:01;6.10;99.90
7516;DHT22;3799;47.184;8.538;2024-01-27T07:54:30;6.10;99.90
7516;DHT22;3799;47.184;8.538;2024-01-27T07:56:59;6.10;99.90
7516;DHT22;3799;47.184;8.538;2024-01-27T07:59:34;6.40;99.90
7516;DHT22;3799;47.184;8.538;2024-01-27T08:02:02;6.50;99.90
7516;DHT22;3799;47.184;8.538;2024-01-27T08:04:30;6.40;99.90
7516;DHT22;3799;47.184;8.538;2024-01-27T08:06:58;6.30;99.90
7516;DHT22;3799;47.184;8.538;2024-01-27T08:09:26;6.40;99.90
7516;DHT22;3799;47.184;8.538;2024-01-27T08:12:02;6.50;99.90
7516;DHT22;3799;47.184;8.538;2024-01-27T08:14:34;6.40;99.90
7516;DHT22;3799;47.184;8.538;2024-01-27T08:17:04;6.60;99.90
7516;DHT22;3799;47.184;8.538;2024-01-27T08:19:40;6.50;99.90
7516;DHT22;3799;47.184;8.538;2024-01-27T08:22:18;6.70;99.90
7516;DHT22;3799;47.184;8.538;2024-01-27T08:24:46;6.80;99.90
7516;DHT22;3799;47.184;8.538;2024-01-27T08:27:16;6.80;99.90
7516;DHT22;3799;47.184;8.538;2024-01-27T08:29:51;6.70;99.90
7516;DHT22;3799;47.184;8.538;2024-01-27T08:32:24;7.00;99.90
7516;DHT22;3799;47.184;8.538;2024-01-27T08:34:53;7.00;99.90
7516;DHT22;3799;47.184;8.538;2024-01-27T08:37:24;6.80;99.90
7516;DHT22;3799;47.184;8.538;2024-01-27T08:39:59;7.10;99.90
7516;DHT22;3799;47.184;8.538;2024-01-27T08:42:27;7.10;99.90
7516;DHT22;3799;47.184;8.538;2024-01-27T08:44:59;7.10;99.90
7516;DHT22;3799;47.184;8.538;2024-01-27T08:47:30;7.00;99.90
7516;DHT22;3799;47.184;8.538;2024-01-27T08:49:58;7.00;99.90
7516;DHT22;3799;47.184;8.538;2024-01-27T08:52:46;7.20;99.90
7516;DHT22;3799;47.184;8.538;2024-01-27T08:55:24;7.20;99.90
7516;DHT22;3799;47.184;8.538;2024-01-27T08:58:07;7.40;99.90
7516;DHT22;3799;47.184;8.538;2024-01-27T09:00:38;7.30;99.90
7516;DHT22;3799;47.184;8.538;2024-01-27T09:03:06;7.40;99.90
7516;DHT22;3799;47.184;8.538;2024-01-27T09:05:35;7.60;99.90
7516;DHT22;3799;47.184;8.538;2024-01-27T09:08:06;7.40;99.90
7516;DHT22;3799;47.184;8.538;2024-01-27T09:10:36;7.60;99.90
7516;DHT22;3799;47.184;8.538;2024-01-27T09:13:06;7.80;99.90
7516;DHT22;3799;47.184;8.538;2024-01-27T09:15:34;7.70;99.90
7516;DHT22;3799;47.184;8.538;2024-01-27T09:18:03;7.90;99.90
7516;DHT22;3799;47.184;8.538;2024-01-27T09:20:35;7.90;99.90
7516;DHT22;3799;47.184;8.538;2024-01-27T09:23:05;8.00;99.90
7516;DHT22;3799;47.184;8.538;2024-01-27T09:25:33;7.70;99.90
7516;DHT22;3799;47.184;8.538;2024-01-27T09:28:10;7.70;99.90
7516;DHT22;3799;47.184;8.538;2024-01-27T09:30:40;7.80;99.90
7516;DHT22;3799;47.184;8.538;2024-01-27T09:33:11;7.70;99.90
7516;DHT22;3799;47.184;8.538;2024-01-27T09:35:40;7.80;99.90
7516;DHT22;3799;47.184;8.538;2024-01-27T09:38:19;7.80;99.90
7516;DHT22;3799;47.184;8.538;2024-01-27T09:40:47;7.90;99.90
7516;DHT22;3799;47.184;8.538;2024-01-27T09:43:16;8.10;99.90
7516;DHT22;3799;47.184;8.538;2024-01-27T09:45:50;8.10;99.90
7516;DHT22;3799;47.184;8.538;2024-01-27T09:48:27;8.00;99.90
7516;DHT22;3799;47.184;8.538;2024-01-27T09:50:58;8.30;99.90
7516;DHT22;3799;47.184;8.538;2024-01-27T09:53:26;8.10;99.90
7516;DHT22;3799;47.184;8.538;2024-01-27T09:55:59;8.30;99.90
7516;DHT22;3799;47.184;8.538;2024-01-27T09:58:35;8.40;99.90
7516;DHT22;3799;47.184;8.538;2024-01-27T10:01:04;8.30;99.90
7516;DHT22;3799;47.184;8.538;2024-01-27T10:03:34;8.30;99.90
7516;DHT22;3799;47.184;8.538;2024-01-27T10:06:13;8.20;99.90
7516;DHT22;3799;47.184;8.538;2024-01-27T10:08:53;8.10;99.90
7516;DHT22;3799;47.184;8.538;2024-01-27T10:11:24;8.10;99.90
7516;DHT22;3799;47.184;8.538;2024-01-27T10:13:57;8.40;99.90
7516;DHT22;3799;47.184;8.538;2024-01-27T10:16:27;8.30;99.90
7516;DHT22;3799;47.184;8.538;2024-01-27T10:19:03;8.50;99.90
7516;DHT22;3799;47.184;8.538;2024-01-27T10:21:31;8.50;99.90
7516;DHT22;3799;47.184;8.538;2024-01-27T10:24:00;8.40;99.90
7516;DHT22;3799;47.184;8.538;2024-01-27T10:26:31;8.40;99.90
7516;DHT22;3799;47.184;8.538;2024-01-27T10:29:03;8.30;99.90
7516;DHT22;3799;47.184;8.538;2024-01-27T10:31:38;8.30;99.90
7516;DHT22;3799;47.184;8.538;2024-01-27T10:34:05;8.30;99.90
7516;DHT22;3799;47.184;8.538;2024-01-27T10:36:48;8.40;99.90
7516;DHT22;3799;47.184;8.538;2024-01-27T10:39:21;8.70;99.90
7516;DHT22;3799;47.184;8.538;2024-01-27T10:41:51;8.60;99.90
7516;DHT22;3799;47.184;8.538;2024-01-27T10:44:22;8.60;99.90
7516;DHT22;3799;47.184;8.538;2024-01-27T10:47:04;8.80;99.90
7516;DHT22;3799;47.184;8.538;2024-01-27T10:49:34;8.70;99.90
7516;DHT22;3799;47.184;8.538;2024-01-27T10:52:12;8.90;99.90
7516;DHT22;3799;47.184;8.538;2024-01-27T10:54:45;9.10;99.90
7516;DHT22;3799;47.184;8.538;2024-01-27T10:57:15;9.20;99.90
7516;DHT22;3799;47.184;8.538;2024-01-27T10:59:45;9.10;99.90
7516;DHT22;3799;47.184;8.538;2024-01-27T11:02:20;9.50;99.90
7516;DHT22;3799;47.184;8.538;2024-01-27T11:04:49;9.30;99.90
7516;DHT22;3799;47.184;8.538;2024-01-27T11:07:19;9.60;99.90
7516;DHT22;3799;47.184;8.538;2024-01-27T11:09:50;9.90;99.90
7516;DHT22;3799;47.184;8.538;2024-01-27T11:12:19;9.80;99.90
7516;DHT22;3799;47.184;8.538;2024-01-27T11:14:54;9.90;99.90
7516;DHT22;3799;47.184;8.538;2024-01-27T11:17:24;10.10;99.90
7516;DHT22;3799;47.184;8.538;2024-01-27T11:19:56;10.30;99.90
7516;DHT22;3799;47.184;8.538;2024-01-27T11:22:29;10.60;99.90
7516;DHT22;3799;47.184;8.538;2024-01-27T11:25:17;10.80;99.90
7516;DHT22;3799;47.184;8.538;2024-01-27T11:27:49;10.70;99.90
7516;DHT22;3799;47.184;8.538;2024-01-27T11:30:28;11.10;99.90
7516;DHT22;3799;47.184;8.538;2024-01-27T11:33:01;11.40;99.90
7516;DHT22;3799;47.184;8.538;2024-01-27T11:35:29;11.20;99.90
7516;DHT22;3799;47.184;8.538;2024-01-27T11:37:57;11.30;99.90
7516;DHT22;3799;47.184;8.538;2024-01-27T11:40:27;11.30;99.90
7516;DHT22;3799;47.184;8.538;2024-01-27T11:43:00;11.70;99.90
7516;DHT22;3799;47.184;8.538;2024-01-27T11:45:34;11.50;99.90
7516;DHT22;3799;47.184;8.538;2024-01-27T11:48:02;11.50;99.90
7516;DHT22;3799;47.184;8.538;2024-01-27T11:50:30;11.70;99.90
7516;DHT22;3799;47.184;8.538;2024-01-27T11:52:58;11.90;99.90
7516;DHT22;3799;47.184;8.538;2024-01-27T11:55:25;11.70;99.90
7516;DHT22;3799;47.184;8.538;2024-01-27T11:57:56;11.40;99.90
7516;DHT22;3799;47.184;8.538;2024-01-27T12:00:24;11.50;99.90
7516;DHT22;3799;47.184;8.538;2024-01-27T12:02:51;11.30;99.90
7516;DHT22;3799;47.184;8.538;2024-01-27T12:05:19;11.50;99.90
7516;DHT22;3799;47.184;8.538;2024-01-27T12:07:47;11.50;99.90
7516;DHT22;3799;47.184;8.538;2024-01-27T12:10:18;11.50;99.90
7516;DHT22;3799;47.184;8.538;2024-01-27T12:12:49;11.70;99.90
7516;DHT22;3799;47.184;8.538;2024-01-27T12:15:16;11.90;99.90
7516;DHT22;3799;47.184;8.538;2024-01-27T12:17:51;11.70;99.90
7516;DHT22;3799;47.184;8.538;2024-01-27T12:20:22;12.20;99.90
7516;DHT22;3799;47.184;8.538;2024-01-27T12:23:05;12.20;99.90
7516;DHT22;3799;47.184;8.538;2024-01-27T12:25:40;12.70;99.90
7516;DHT22;3799;47.184;8.538;2024-01-27T12:28:08;12.60;99.90
7516;DHT22;3799;47.184;8.538;2024-01-27T12:30:36;13.10;99.90
7516;DHT22;3799;47.184;8.538;2024-01-27T12:33:12;13.10;99.90
7516;DHT22;3799;47.184;8.538;2024-01-27T12:35:43;12.90;99.90
7516;DHT22;3799;47.184;8.538;2024-01-27T12:38:17;12.60;99.70
7516;DHT22;3799;47.184;8.538;2024-01-27T12:40:46;12.90;99.90
7516;DHT22;3799;47.184;8.538;2024-01-27T12:43:18;12.70;99.90
7516;DHT22;3799;47.184;8.538;2024-01-27T12:45:51;12.80;99.90
7516;DHT22;3799;47.184;8.538;2024-01-27T12:48:23;13.10;99.50
7516;DHT22;3799;47.184;8.538;2024-01-27T12:50:51;13.20;97.50
7516;DHT22;3799;47.184;8.538;2024-01-27T12:53:19;13.10;98.50
7516;DHT22;3799;47.184;8.538;2024-01-27T12:55:46;13.20;98.40
7516;DHT22;3799;47.184;8.538;2024-01-27T12:58:14;14.00;97.90
7516;DHT22;3799;47.184;8.538;2024-01-27T13:00:41;13.90;95.80
7516;DHT22;3799;47.184;8.538;2024-01-27T13:03:09;14.30;95.70
7516;DHT22;3799;47.184;8.538;2024-01-27T13:05:37;14.60;94.80
7516;DHT22;3799;47.184;8.538;2024-01-27T13:08:05;14.50;93.70
7516;DHT22;3799;47.184;8.538;2024-01-27T13:10:36;14.80;93.50
7516;DHT22;3799;47.184;8.538;2024-01-27T13:13:07;14.70;93.40
7516;DHT22;3799;47.184;8.538;2024-01-27T13:15:35;15.20;92.00
7516;DHT22;3799;47.184;8.538;2024-01-27T13:18:03;15.10;91.20
7516;DHT22;3799;47.184;8.538;2024-01-27T13:20:32;15.30;91.40
7516;DHT22;3799;47.184;8.538;2024-01-27T13:23:03;15.50;90.90
7516;DHT22;3799;47.184;8.538;2024-01-27T13:25:31;15.60;85.00
7516;DHT22;3799;47.184;8.538;2024-01-27T13:27:59;15.50;85.20
7516;DHT22;3799;47.184;8.538;2024-01-27T13:30:26;15.60;85.80
7516;DHT22;3799;47.184;8.538;2024-01-27T13:32:59;15.80;86.50
7516;DHT22;3799;47.184;8.538;2024-01-27T13:35:27;15.90;85.80
7516;DHT22;3799;47.184;8.538;2024-01-27T13:37:55;16.20;83.80
7516;DHT22;3799;47.184;8.538;2024-01-27T13:40:22;16.40;81.70
7516;DHT22;3799;47.184;8.538;2024-01-27T13:42:54;16.60;78.90
7516;DHT22;3799;47.184;8.538;2024-01-27T13:45:26;16.60;76.40
7516;DHT22;3799;47.184;8.538;2024-01-27T13:48:00;16.60;74.00
7516;DHT22;3799;47.184;8.538;2024-01-27T13:50:29;16.40;72.80
7516;DHT22;3799;47.184;8.538;2024-01-27T13:53:01;16.30;73.50
7516;DHT22;3799;47.184;8.538;2024-01-27T13:55:32;16.30;74.20
7516;DHT22;3799;47.184;8.538;2024-01-27T13:58:08;16.30;74.00
7516;DHT22;3799;47.184;8.538;2024-01-27T14:00:50;16.20;73.80
7516;DHT22;3799;47.184;8.538;2024-01-27T14:03:25;16.10;75.70
7516;DHT22;3799;47.184;8.538;2024-01-27T14:05:56;16.40;75.70
7516;DHT22;3799;47.184;8.538;2024-01-27T14:08:25;16.50;72.80
7516;DHT22;3799;47.184;8.538;2024-01-27T14:11:04;16.60;69.10
7516;DHT22;3799;47.184;8.538;2024-01-27T14:13:35;16.40;70.20
7516;DHT22;3799;47.184;8.538;2024-01-27T14:16:05;16.70;68.70
7516;DHT22;3799;47.184;8.538;2024-01-27T14:18:47;16.50;69.80
7516;DHT22;3799;47.184;8.538;2024-01-27T14:21:15;16.60;70.40
7516;DHT22;3799;47.184;8.538;2024-01-27T14:23:46;16.80;68.90
7516;DHT22;3799;47.184;8.538;2024-01-27T14:26:15;16.70;67.90
7516;DHT22;3799;47.184;8.538;2024-01-27T14:28:56;16.90;67.90
7516;DHT22;3799;47.184;8.538;2024-01-27T14:31:24;17.40;64.60
7516;DHT22;3799;47.184;8.538;2024-01-27T14:33:54;18.10;61.80
7516;DHT22;3799;47.184;8.538;2024-01-27T14:36:26;18.80;58.90
7516;DHT22;3799;47.184;8.538;2024-01-27T14:39:08;19.30;57.90
7516;DHT22;3799;47.184;8.538;2024-01-27T14:41:47;19.80;56.10
7516;DHT22;3799;47.184;8.538;2024-01-27T14:44:18;20.40;56.10
7516;DHT22;3799;47.184;8.538;2024-01-27T14:46:46;21.30;54.30
7516;DHT22;3799;47.184;8.538;2024-01-27T14:49:26;21.90;53.00
7516;DHT22;3799;47.184;8.538;2024-01-27T14:52:07;22.50;51.00
7516;DHT22;3799;47.184;8.538;2024-01-27T14:54:38;22.60;49.70
7516;DHT22;3799;47.184;8.538;2024-01-27T14:57:14;21.60;49.90
7516;DHT22;3799;47.184;8.538;2024-01-27T14:59:45;20.30;50.80
7516;DHT22;3799;47.184;8.538;2024-01-27T15:02:20;19.90;52.00
7516;DHT22;3799;47.184;8.538;2024-01-27T15:04:54;20.60;52.00
7516;DHT22;3799;47.184;8.538;2024-01-27T15:07:33;21.40;51.00
7516;DHT22;3799;47.184;8.538;2024-01-27T15:10:01;22.30;50.30
7516;DHT22;3799;47.184;8.538;2024-01-27T15:12:39;22.90;48.80
7516;DHT22;3799;47.184;8.538;2024-01-27T15:15:14;22.60;48.50
7516;DHT22;3799;47.184;8.538;2024-01-27T15:17:43;22.10;48.30
7516;DHT22;3799;47.184;8.538;2024-01-27T15:20:16;21.40;49.30
7516;DHT22;3799;47.184;8.538;2024-01-27T15:22:56;20.70;49.80
7516;DHT22;3799;47.184;8.538;2024-01-27T15:25:25;20.20;50.10
7516;DHT22;3799;47.184;8.538;2024-01-27T15:27:54;19.40;50.60
7516;DHT22;3799;47.184;8.538;2024-01-27T15:30:23;18.40;51.70
7516;DHT22;3799;47.184;8.538;2024-01-27T15:32:52;17.60;52.70
7516;DHT22;3799;47.184;8.538;2024-01-27T15:35:27;16.70;54.10
7516;DHT22;3799;47.184;8.538;2024-01-27T15:38:04;16.00;55.30
7516;DHT22;3799;47.184;8.538;2024-01-27T15:40:37;15.40;56.50
7516;DHT22;3799;47.184;8.538;2024-01-27T15:43:10;14.80;57.50
7516;DHT22;3799;47.184;8.538;2024-01-27T15:45:43;14.20;58.50
7516;DHT22;3799;47.184;8.538;2024-01-27T15:48:23;13.90;61.50
7516;DHT22;3799;47.184;8.538;2024-01-27T15:50:55;14.80;64.30
7516;DHT22;3799;47.184;8.538;2024-01-27T15:53:26;15.70;61.60
7516;DHT22;3799;47.184;8.538;2024-01-27T15:55:54;16.10;59.50
7516;DHT22;3799;47.184;8.538;2024-01-27T15:58:24;16.10;58.70
7516;DHT22;3799;47.184;8.538;2024-01-27T16:00:57;15.70;59.00
7516;DHT22;3799;47.184;8.538;2024-01-27T16:03:27;15.30;59.30
7516;DHT22;3799;47.184;8.538;2024-01-27T16:06:16;14.60;59.70
7516;DHT22;3799;47.184;8.538;2024-01-27T16:08:51;14.00;62.20
7516;DHT22;3799;47.184;8.538;2024-01-27T16:11:24;13.10;65.30
7516;DHT22;3799;47.184;8.538;2024-01-27T16:14:02;13.20;68.10
7516;DHT22;3799;47.184;8.538;2024-01-27T16:16:33;12.30;69.90
7516;DHT22;3799;47.184;8.538;2024-01-27T16:19:02;11.70;73.70
7516;DHT22;3799;47.184;8.538;2024-01-27T16:21:33;11.30;78.60
7516;DHT22;3799;47.184;8.538;2024-01-27T16:24:01;11.20;85.00
7516;DHT22;3799;47.184;8.538;2024-01-27T16:26:33;10.80;91.00
7516;DHT22;3799;47.184;8.538;2024-01-27T16:29:04;10.50;94.80
7516;DHT22;3799;47.184;8.538;2024-01-27T16:31:36;10.20;98.10
7516;DHT22;3799;47.184;8.538;2024-01-27T16:34:13;10.30;99.90